createdAt,value
2017-06-29T00:01:27.550Z,49.70
2017-06-29T00:03:55.098Z,53.70
2017-06-29T00:06:22.652Z,57.53
2017-06-29T00:08:50.191Z,54.77
2017-06-29T00:11:17.728Z,55.10
2017-06-29T00:13:45.276Z,58.00
2017-06-29T00:16:12.826Z,56.67
2017-06-29T00:18:40.361Z,54.33
2017-06-29T00:21:07.913Z,57.87
2017-06-29T00:23:35.434Z,50.53
2017-06-29T00:26:02.971Z,54.23
2017-06-29T00:28:30.548Z,51.07
2017-06-29T00:30:58.088Z,59.03
2017-06-29T00:33:25.638Z,55.07
2017-06-29T00:35:54.123Z,49.53
2017-06-29T00:38:22.433Z,49.40
2017-06-29T00:40:49.958Z,59.47
2017-06-29T00:43:18.279Z,53.27
2017-06-29T00:45:45.810Z,54.53
2017-06-29T00:48:13.358Z,59.63
2017-06-29T00:50:40.906Z,57.37
2017-06-29T00:53:08.458Z,55.70
2017-06-29T00:55:35.978Z,60.40
2017-06-29T00:58:03.536Z,65.27
2017-06-29T01:00:31.075Z,60.23
2017-06-29T01:02:58.613Z,60.90
2017-06-29T01:05:26.186Z,58.50
2017-06-29T01:07:53.738Z,55.90
2017-06-29T01:10:22.061Z,52.53
2017-06-29T01:12:49.602Z,57.63
2017-06-29T01:15:17.162Z,63.03
2017-06-29T01:17:44.702Z,61.77
2017-06-29T01:20:13.012Z,61.63
2017-06-29T01:22:40.550Z,64.80
2017-06-29T01:25:08.858Z,57.90
2017-06-29T01:27:36.399Z,60.37
2017-06-29T01:30:03.959Z,57.80
2017-06-29T01:32:31.499Z,57.90
2017-06-29T01:34:59.056Z,59.73
2017-06-29T01:37:26.609Z,61.90
2017-06-29T01:39:54.146Z,62.53
2017-06-29T01:42:21.698Z,57.57
2017-06-29T01:44:49.221Z,56.00
2017-06-29T01:47:16.784Z,55.77
2017-06-29T01:49:44.326Z,55.67
2017-06-29T01:52:11.887Z,51.53
2017-06-29T01:54:40.186Z,59.23
2017-06-29T01:57:07.725Z,51.50
2017-06-29T01:59:35.267Z,54.30
2017-06-29T02:02:02.822Z,54.60
2017-06-29T02:04:30.367Z,51.80
2017-06-29T02:06:57.927Z,57.00
2017-06-29T02:09:25.464Z,49.90
2017-06-29T02:11:53.010Z,51.57
2017-06-29T02:14:20.534Z,58.50
2017-06-29T02:16:48.094Z,57.67
2017-06-29T02:19:16.414Z,54.07
2017-06-29T02:21:43.941Z,53.57
2017-06-29T02:24:11.489Z,52.30
2017-06-29T02:26:39.035Z,49.80
2017-06-29T02:29:06.573Z,52.73
2017-06-29T02:31:34.119Z,48.63
2017-06-29T02:34:01.661Z,51.70
2017-06-29T02:36:29.191Z,51.33
2017-06-29T02:38:57.502Z,49.90
2017-06-29T02:41:25.051Z,50.10
2017-06-29T02:43:52.685Z,55.07
2017-06-29T02:46:20.219Z,53.53
2017-06-29T02:48:47.768Z,59.30
2017-06-29T02:51:15.316Z,63.50
2017-06-29T02:53:42.848Z,57.60
2017-06-29T02:56:10.410Z,60.37
2017-06-29T02:58:38.714Z,63.63
2017-06-29T03:01:06.266Z,56.53
2017-06-29T03:03:33.830Z,57.20
2017-06-29T03:06:01.391Z,54.80
2017-06-29T03:08:28.926Z,55.33
2017-06-29T03:10:57.291Z,54.70
2017-06-29T03:13:25.604Z,53.30
2017-06-29T03:15:53.155Z,53.53
2017-06-29T03:18:20.706Z,51.07
2017-06-29T03:20:49.077Z,50.53
2017-06-29T03:23:17.381Z,51.67
2017-06-29T03:25:44.933Z,50.90
2017-06-29T03:28:12.470Z,53.60
2017-06-29T03:30:40.794Z,50.00
2017-06-29T03:33:08.341Z,46.47
2017-06-29T03:35:35.873Z,52.60
2017-06-29T03:38:04.194Z,54.07
2017-06-29T03:40:31.735Z,48.43
2017-06-29T03:42:59.314Z,48.17
2017-06-29T03:45:26.861Z,47.53
2017-06-29T03:47:54.429Z,53.23
2017-06-29T03:50:21.957Z,50.73
2017-06-29T03:52:49.518Z,48.10
2017-06-29T03:55:17.062Z,63.60
2017-06-29T03:57:44.606Z,46.13
2017-06-29T04:00:12.136Z,97.93
2017-06-29T04:02:39.700Z,68.60
2017-06-29T04:05:07.268Z,65.37
2017-06-29T04:07:34.807Z,56.17
2017-06-29T04:10:02.366Z,50.27
2017-06-29T04:12:29.905Z,45.83
2017-06-29T04:14:58.240Z,59.97
2017-06-29T04:17:25.791Z,42.77
2017-06-29T04:19:53.338Z,46.20
2017-06-29T04:22:20.880Z,42.83
2017-06-29T04:24:48.432Z,40.10
2017-06-29T04:27:15.969Z,37.80
2017-06-29T04:29:44.295Z,37.80
2017-06-29T04:32:11.850Z,38.30
2017-06-29T04:34:39.408Z,39.87
2017-06-29T04:37:06.938Z,42.57
2017-06-29T04:39:35.252Z,45.80
2017-06-29T04:42:02.781Z,41.87
2017-06-29T04:44:31.097Z,40.97
2017-06-29T04:46:58.630Z,39.97
2017-06-29T04:49:26.155Z,39.77
2017-06-29T04:51:53.713Z,40.83
2017-06-29T04:54:21.255Z,38.60
2017-06-29T04:56:48.802Z,42.53
2017-06-29T04:59:16.333Z,41.53
2017-06-29T05:01:43.895Z,48.47
2017-06-29T05:04:11.440Z,46.07
2017-06-29T05:06:38.998Z,44.60
2017-06-29T05:09:07.375Z,51.97
2017-06-29T05:11:34.971Z,52.90
2017-06-29T05:14:02.515Z,58.07
2017-06-29T05:16:30.076Z,59.57
2017-06-29T05:18:57.627Z,54.10
2017-06-29T05:21:25.177Z,48.97
2017-06-29T05:23:52.706Z,63.30
2017-06-29T05:26:20.263Z,59.13
2017-06-29T05:28:47.814Z,56.77
2017-06-29T05:31:15.355Z,56.40
2017-06-29T05:33:42.902Z,50.37
2017-06-29T05:36:10.448Z,51.10
2017-06-29T05:38:38.108Z,48.13
2017-06-29T05:41:05.647Z,46.27
2017-06-29T05:43:33.211Z,45.67
2017-06-29T05:46:00.751Z,44.00
2017-06-29T05:48:28.298Z,45.07
2017-06-29T05:50:55.839Z,42.87
2017-06-29T05:53:23.400Z,50.27
2017-06-29T05:55:50.936Z,45.43
2017-06-29T05:58:18.515Z,45.47
2017-06-29T06:00:46.047Z,47.13
2017-06-29T06:03:13.569Z,47.90
2017-06-29T06:05:41.117Z,40.17
2017-06-29T06:08:08.656Z,47.50
2017-06-29T06:10:36.217Z,51.13
2017-06-29T06:13:03.775Z,45.30
2017-06-29T06:15:31.321Z,45.97
2017-06-29T06:17:58.873Z,52.47
2017-06-29T06:20:26.427Z,47.00
2017-06-29T06:22:53.980Z,48.77
2017-06-29T06:25:21.542Z,49.40
2017-06-29T06:27:49.097Z,47.17
2017-06-29T06:30:16.655Z,53.57
2017-06-29T06:32:44.207Z,46.13
2017-06-29T06:35:11.746Z,43.57
2017-06-29T06:37:39.345Z,47.87
2017-06-29T06:40:06.894Z,48.37
2017-06-29T06:42:34.429Z,51.67
2017-06-29T06:45:01.968Z,48.27
2017-06-29T06:47:29.533Z,46.00
2017-06-29T06:49:57.085Z,47.00
2017-06-29T06:52:24.634Z,47.63
2017-06-29T06:54:52.171Z,46.97
2017-06-29T06:57:19.730Z,46.30
2017-06-29T06:59:47.258Z,45.23
2017-06-29T07:02:14.818Z,42.97
2017-06-29T07:04:42.370Z,41.77
2017-06-29T07:07:09.933Z,44.87
2017-06-29T07:09:37.479Z,44.40
2017-06-29T07:12:05.039Z,40.70
2017-06-29T07:14:32.573Z,43.13
2017-06-29T07:17:00.119Z,41.83
2017-06-29T07:19:27.678Z,43.23
2017-06-29T07:21:55.219Z,45.50
2017-06-29T07:24:22.769Z,49.20
2017-06-29T07:26:50.306Z,43.90
2017-06-29T07:29:17.846Z,45.73
2017-06-29T07:31:45.386Z,44.00
2017-06-29T07:34:12.962Z,48.73
2017-06-29T07:36:40.489Z,48.20
2017-06-29T07:39:08.030Z,47.73
2017-06-29T07:41:35.569Z,44.97
2017-06-29T07:44:03.117Z,46.63
2017-06-29T07:46:30.647Z,46.67
2017-06-29T07:48:58.189Z,44.70
2017-06-29T07:51:25.736Z,48.93
2017-06-29T07:53:53.279Z,47.23
2017-06-29T07:56:20.833Z,53.27
2017-06-29T07:58:48.363Z,50.77
2017-06-29T08:01:15.921Z,47.57
2017-06-29T08:03:43.463Z,42.43
2017-06-29T08:06:11.028Z,46.57
2017-06-29T08:08:38.575Z,45.87
2017-06-29T08:11:06.135Z,52.77
2017-06-29T08:13:33.682Z,52.03
2017-06-29T08:16:01.234Z,51.17
2017-06-29T08:18:28.756Z,53.27
2017-06-29T08:20:56.309Z,53.30
2017-06-29T08:23:23.848Z,56.63
2017-06-29T08:25:51.402Z,56.57
2017-06-29T08:28:18.937Z,53.07
2017-06-29T08:30:46.480Z,53.10
2017-06-29T08:33:14.036Z,57.73
2017-06-29T08:35:41.582Z,62.27
2017-06-29T08:38:09.142Z,61.50
2017-06-29T08:40:36.705Z,52.43
2017-06-29T08:43:04.248Z,57.30
2017-06-29T08:45:31.769Z,60.20
2017-06-29T08:47:59.320Z,54.87
2017-06-29T08:50:26.866Z,58.83
2017-06-29T08:52:54.409Z,53.97
2017-06-29T08:55:21.943Z,53.23
2017-06-29T08:57:49.501Z,52.67
2017-06-29T09:00:17.039Z,52.93
2017-06-29T09:02:44.598Z,49.67
2017-06-29T09:05:12.190Z,53.73
2017-06-29T09:07:39.744Z,54.47
2017-06-29T09:10:07.270Z,56.20
2017-06-29T09:12:34.797Z,50.77
2017-06-29T09:15:02.346Z,51.43
2017-06-29T09:17:29.892Z,49.13
2017-06-29T09:19:57.433Z,49.80
2017-06-29T09:22:24.970Z,48.80
2017-06-29T09:24:52.531Z,49.80
2017-06-29T09:27:20.078Z,48.50
2017-06-29T09:29:47.659Z,51.70
2017-06-29T09:32:15.206Z,51.37
2017-06-29T09:34:42.785Z,53.23
2017-06-29T09:37:10.328Z,67.97
2017-06-29T09:39:37.877Z,62.40
2017-06-29T09:42:05.420Z,53.13
2017-06-29T09:44:32.970Z,63.00
2017-06-29T09:47:00.527Z,52.87
2017-06-29T09:49:28.096Z,75.37
2017-06-29T09:51:55.634Z,59.70
2017-06-29T09:54:23.175Z,67.43
2017-06-29T09:56:50.733Z,61.27
2017-06-29T09:59:18.276Z,57.33
2017-06-29T10:01:45.830Z,61.63
2017-06-29T10:04:13.370Z,61.63
2017-06-29T10:06:40.922Z,61.97
2017-06-29T10:09:08.458Z,60.77
2017-06-29T10:11:36.000Z,56.83
2017-06-29T10:14:03.516Z,54.77
2017-06-29T10:16:31.070Z,43.20
2017-06-29T10:18:58.610Z,37.80
2017-06-29T10:21:26.162Z,28.17
2017-06-29T10:23:53.697Z,23.17
2017-06-29T10:26:21.259Z,22.87
2017-06-29T10:28:48.789Z,21.40
2017-06-29T10:31:16.350Z,20.40
2017-06-29T10:33:43.914Z,19.57
2017-06-29T10:36:11.463Z,20.60
2017-06-29T10:38:39.070Z,29.63
2017-06-29T10:41:06.596Z,27.10
2017-06-29T10:43:34.142Z,26.97
2017-06-29T10:46:01.678Z,26.80
2017-06-29T10:48:29.230Z,29.27
2017-06-29T10:50:56.771Z,35.13
2017-06-29T10:53:24.335Z,33.50
2017-06-29T10:55:51.876Z,41.00
2017-06-29T10:58:19.422Z,43.60
2017-06-29T11:00:46.945Z,42.93
2017-06-29T11:03:14.482Z,36.60
2017-06-29T11:05:42.021Z,47.30
2017-06-29T11:08:09.583Z,40.63
2017-06-29T11:10:37.134Z,40.63
2017-06-29T11:13:04.675Z,42.60
2017-06-29T11:15:32.245Z,35.67
2017-06-29T11:17:59.781Z,41.87
2017-06-29T11:20:27.341Z,39.57
2017-06-29T11:22:54.883Z,47.10
2017-06-29T11:25:22.446Z,44.00
2017-06-29T11:27:49.981Z,40.80
2017-06-29T11:30:17.562Z,36.60
2017-06-29T11:32:45.098Z,41.03
2017-06-29T11:35:12.641Z,37.00
2017-06-29T11:37:40.198Z,35.27
2017-06-29T11:40:07.750Z,34.63
2017-06-29T11:42:35.299Z,37.40
2017-06-29T11:45:02.850Z,36.53
2017-06-29T11:47:30.391Z,31.53
2017-06-29T11:49:57.968Z,32.83
2017-06-29T11:52:25.541Z,28.87
2017-06-29T11:54:53.082Z,31.50
2017-06-29T11:57:20.659Z,26.90
2017-06-29T11:59:48.216Z,29.80
2017-06-29T12:02:15.774Z,27.30
2017-06-29T12:04:43.325Z,28.03
2017-06-29T12:07:10.900Z,26.00
2017-06-29T12:09:38.434Z,21.40
2017-06-29T12:12:05.995Z,17.80
2017-06-29T12:14:33.540Z,17.10
2017-06-29T12:17:01.112Z,17.17
2017-06-29T12:19:28.641Z,16.23
2017-06-29T12:21:56.185Z,18.10
2017-06-29T12:24:23.728Z,17.67
2017-06-29T12:26:51.275Z,16.60
2017-06-29T12:29:18.865Z,17.10
2017-06-29T12:31:46.435Z,16.73
2017-06-29T12:34:13.991Z,15.90
2017-06-29T12:36:41.522Z,14.67
2017-06-29T12:39:09.090Z,14.00
2017-06-29T12:41:36.635Z,13.20
2017-06-29T12:44:04.187Z,12.00
2017-06-29T12:46:31.714Z,15.00
2017-06-29T12:48:59.268Z,13.10
2017-06-29T12:51:26.812Z,14.10
2017-06-29T12:53:54.376Z,13.13
2017-06-29T12:56:21.907Z,12.97
2017-06-29T12:58:49.462Z,12.10
2017-06-29T13:01:17.026Z,11.80
2017-06-29T13:03:44.567Z,11.20
2017-06-29T13:06:12.133Z,12.13
2017-06-29T13:08:39.667Z,11.17
2017-06-29T13:11:07.210Z,13.03
2017-06-29T13:13:34.763Z,10.23
2017-06-29T13:16:02.314Z,8.70
2017-06-29T13:18:29.846Z,8.50
2017-06-29T13:20:57.403Z,8.30
2017-06-29T13:23:24.963Z,9.27
2017-06-29T13:25:52.519Z,11.17
2017-06-29T13:28:20.059Z,10.43
2017-06-29T13:30:47.602Z,9.50
2017-06-29T13:33:15.145Z,9.13
2017-06-29T13:35:42.672Z,11.33
2017-06-29T13:38:10.256Z,10.80
2017-06-29T13:40:37.810Z,10.13
2017-06-29T13:43:05.358Z,8.80
2017-06-29T13:45:32.895Z,9.50
2017-06-29T13:48:00.434Z,7.87
2017-06-29T13:50:27.980Z,7.77
2017-06-29T13:52:55.525Z,8.70
2017-06-29T13:55:23.049Z,7.90
2017-06-29T13:57:50.597Z,6.53
2017-06-29T14:00:18.129Z,6.33
2017-06-29T14:02:45.684Z,6.87
2017-06-29T14:05:13.217Z,6.67
2017-06-29T14:07:40.762Z,5.90
2017-06-29T14:10:08.294Z,6.07
2017-06-29T14:12:35.826Z,5.77
2017-06-29T14:15:03.375Z,6.57
2017-06-29T14:17:30.903Z,8.57
2017-06-29T14:19:58.459Z,4.70
2017-06-29T14:22:26.004Z,4.93
2017-06-29T14:24:53.556Z,5.03
2017-06-29T14:27:21.091Z,6.50
2017-06-29T14:29:48.657Z,5.03
2017-06-29T14:32:16.217Z,4.27
2017-06-29T14:34:43.761Z,5.00
2017-06-29T14:37:11.291Z,6.80
2017-06-29T14:39:38.847Z,5.50
2017-06-29T14:42:06.387Z,7.07
2017-06-29T14:44:33.943Z,7.00
2017-06-29T14:47:01.475Z,8.10
2017-06-29T14:49:29.026Z,7.80
2017-06-29T14:51:56.570Z,8.23
2017-06-29T14:54:24.116Z,9.17
2017-06-29T14:56:51.642Z,8.57
2017-06-29T14:59:19.211Z,10.53
2017-06-29T15:01:46.742Z,9.47
2017-06-29T15:04:14.272Z,9.27
2017-06-29T15:06:41.830Z,9.83
2017-06-29T15:09:09.349Z,9.80
2017-06-29T15:11:36.898Z,9.70
2017-06-29T15:14:04.435Z,8.80
2017-06-29T15:16:31.974Z,9.50
2017-06-29T15:18:59.494Z,8.33
2017-06-29T15:21:27.038Z,9.07
2017-06-29T15:23:54.567Z,7.50
2017-06-29T15:26:22.119Z,10.27
2017-06-29T15:28:49.646Z,10.60
2017-06-29T15:31:17.196Z,9.47
2017-06-29T15:33:44.733Z,10.70
2017-06-29T15:36:12.327Z,11.27
2017-06-29T15:38:39.876Z,11.63
2017-06-29T15:41:07.435Z,11.90
2017-06-29T15:43:36.129Z,11.43
2017-06-29T15:46:03.680Z,13.23
2017-06-29T15:48:31.231Z,11.40
2017-06-29T15:50:58.780Z,13.50
2017-06-29T15:53:26.333Z,12.93
2017-06-29T15:55:53.863Z,12.97
2017-06-29T15:58:21.409Z,12.47
2017-06-29T16:00:48.951Z,11.17
2017-06-29T16:03:17.661Z,10.43
2017-06-29T16:05:45.192Z,10.47
2017-06-29T16:08:12.752Z,10.80
2017-06-29T16:10:40.290Z,13.47
2017-06-29T16:13:07.854Z,11.93
2017-06-29T16:15:35.382Z,7.80
2017-06-29T16:18:02.912Z,8.00
2017-06-29T16:20:30.474Z,10.27
2017-06-29T16:22:58.021Z,9.60
2017-06-29T16:25:25.569Z,9.87
2017-06-29T16:27:53.122Z,10.53
2017-06-29T16:30:20.684Z,10.20
2017-06-29T16:32:48.214Z,7.80
2017-06-29T16:35:15.762Z,10.40
2017-06-29T16:37:43.302Z,10.93
2017-06-29T16:40:10.846Z,9.37
2017-06-29T16:42:38.411Z,13.53
2017-06-29T16:45:05.960Z,10.80
2017-06-29T16:47:33.493Z,8.67
2017-06-29T16:50:01.058Z,8.60
2017-06-29T16:52:28.594Z,9.23
2017-06-29T16:54:56.122Z,6.47
2017-06-29T16:57:23.662Z,8.90
2017-06-29T16:59:51.194Z,9.37
2017-06-29T17:02:18.740Z,8.80
2017-06-29T17:04:46.285Z,6.37
2017-06-29T17:07:13.841Z,9.50
2017-06-29T17:09:41.357Z,8.73
2017-06-29T17:12:08.909Z,8.60
2017-06-29T17:14:36.438Z,9.03
2017-06-29T17:17:04.002Z,9.40
2017-06-29T17:19:32.654Z,9.33
2017-06-29T17:22:00.198Z,10.17
2017-06-29T17:24:27.734Z,11.40
2017-06-29T17:26:55.279Z,8.77
2017-06-29T17:29:22.806Z,10.03
2017-06-29T17:31:50.360Z,8.23
2017-06-29T17:34:17.881Z,9.30
2017-06-29T17:36:46.170Z,9.73
2017-06-29T17:39:13.726Z,8.57
2017-06-29T17:41:41.261Z,8.33
2017-06-29T17:44:08.813Z,9.27
2017-06-29T17:46:36.355Z,14.43
2017-06-29T17:49:03.911Z,13.03
2017-06-29T17:51:31.451Z,11.13
2017-06-29T17:54:00.131Z,10.30
2017-06-29T17:56:27.645Z,8.10
2017-06-29T17:58:55.186Z,11.10
2017-06-29T18:01:22.718Z,7.87
2017-06-29T18:03:50.261Z,11.40
2017-06-29T18:06:17.885Z,10.43
2017-06-29T18:08:45.450Z,8.37
2017-06-29T18:11:13.010Z,9.17
2017-06-29T18:13:40.546Z,10.23
2017-06-29T18:16:08.126Z,9.87
2017-06-29T18:18:35.681Z,8.43
2017-06-29T18:21:03.238Z,8.47
2017-06-29T18:23:30.793Z,11.33
2017-06-29T18:25:58.348Z,8.10
2017-06-29T18:28:25.875Z,8.80
2017-06-29T18:30:53.414Z,7.40
2017-06-29T18:33:20.949Z,9.20
2017-06-29T18:35:48.495Z,8.80
2017-06-29T18:38:16.040Z,8.23
2017-06-29T18:40:43.574Z,7.87
2017-06-29T18:43:11.109Z,6.87
2017-06-29T18:45:38.642Z,8.70
2017-06-29T18:48:06.182Z,8.10
2017-06-29T18:50:33.702Z,7.80
2017-06-29T18:53:01.252Z,7.83
2017-06-29T18:55:28.786Z,9.23
2017-06-29T18:57:56.339Z,8.00
2017-06-29T19:00:31.013Z,8.93
2017-06-29T19:03:00.197Z,10.50
2017-06-29T19:05:29.374Z,8.60
2017-06-29T19:07:58.773Z,7.07
2017-06-29T19:10:27.671Z,8.30
2017-06-29T19:12:55.208Z,8.77
2017-06-29T19:15:22.733Z,7.63
2017-06-29T19:17:50.291Z,8.40
2017-06-29T19:20:17.937Z,7.57
2017-06-29T19:22:46.822Z,9.70
2017-06-29T19:25:15.710Z,8.30
2017-06-29T19:27:44.614Z,8.67
2017-06-29T19:30:12.155Z,8.93
2017-06-29T19:32:40.835Z,10.53
2017-06-29T19:35:08.387Z,9.30
2017-06-29T19:37:35.970Z,11.17
2017-06-29T19:40:03.577Z,10.63
2017-06-29T19:42:31.937Z,11.83
2017-06-29T19:44:59.524Z,11.50
2017-06-29T19:47:27.962Z,10.80
2017-06-29T19:49:55.514Z,9.97
2017-06-29T19:52:23.065Z,10.32
2017-06-29T19:54:50.636Z,9.20
2017-06-29T19:57:19.526Z,7.87
2017-06-29T19:59:47.061Z,5.63
2017-06-29T20:02:15.731Z,7.27
2017-06-29T20:04:44.410Z,6.23
2017-06-29T20:07:13.290Z,6.23
2017-06-29T20:09:43.642Z,8.20
2017-06-29T20:12:12.304Z,7.77
2017-06-29T20:14:40.988Z,7.50
2017-06-29T20:17:09.692Z,8.90
2017-06-29T20:19:38.587Z,8.10
2017-06-29T20:22:07.256Z,9.57
2017-06-29T20:24:36.089Z,7.80
2017-06-29T20:27:04.966Z,9.97
2017-06-29T20:29:33.642Z,10.63
2017-06-29T20:32:02.340Z,8.90
2017-06-29T20:34:31.067Z,9.53
2017-06-29T20:36:59.751Z,10.30
2017-06-29T20:39:28.495Z,9.70
2017-06-29T20:41:57.202Z,8.57
2017-06-29T20:44:25.912Z,9.97
2017-06-29T20:46:53.458Z,9.73
2017-06-29T20:49:22.118Z,9.87
2017-06-29T20:51:53.167Z,8.63
2017-06-29T20:54:21.829Z,10.00
2017-06-29T20:56:50.738Z,10.67
2017-06-29T20:59:19.415Z,11.97
2017-06-29T21:01:46.967Z,10.90
2017-06-29T21:04:15.650Z,11.03
2017-06-29T21:06:43.172Z,10.70
2017-06-29T21:09:10.722Z,10.90
2017-06-29T21:11:38.258Z,10.87
2017-06-29T21:14:05.809Z,10.40
2017-06-29T21:16:34.495Z,11.13
2017-06-29T21:19:02.052Z,10.57
2017-06-29T21:21:30.778Z,11.07
2017-06-29T21:23:58.345Z,10.03
2017-06-29T21:26:27.015Z,10.70
2017-06-29T21:28:54.574Z,11.53
2017-06-29T21:31:22.101Z,10.87
2017-06-29T21:33:50.795Z,10.67
2017-06-29T21:36:18.338Z,9.43
2017-06-29T21:38:47.029Z,9.10
2017-06-29T21:41:15.699Z,8.07
2017-06-29T21:43:43.243Z,9.10
2017-06-29T21:46:10.786Z,10.00
2017-06-29T21:48:39.503Z,9.47
2017-06-29T21:51:07.046Z,10.23
2017-06-29T21:53:35.738Z,11.03
2017-06-29T21:56:04.426Z,10.70
2017-06-29T21:58:31.955Z,10.70
2017-06-29T22:00:59.498Z,10.23
2017-06-29T22:03:27.061Z,9.83
2017-06-29T22:05:54.610Z,9.20
2017-06-29T22:08:22.129Z,8.33
2017-06-29T22:10:49.682Z,9.00
2017-06-29T22:13:17.218Z,9.53
2017-06-29T22:15:46.149Z,8.90
2017-06-29T22:18:13.688Z,8.83
2017-06-29T22:20:41.230Z,8.80
2017-06-29T22:23:08.759Z,7.73
2017-06-29T22:25:36.313Z,7.77
2017-06-29T22:28:03.850Z,10.80
2017-06-29T22:30:31.380Z,9.10
2017-06-29T22:32:58.934Z,9.70
2017-06-29T22:35:26.486Z,7.60
2017-06-29T22:37:55.169Z,7.30
2017-06-29T22:40:22.704Z,9.43
2017-06-29T22:42:51.381Z,8.30
2017-06-29T22:45:18.914Z,7.93
2017-06-29T22:47:47.976Z,8.30
2017-06-29T22:50:17.026Z,8.67
2017-06-29T22:52:44.571Z,9.77
2017-06-29T22:55:13.753Z,10.00
2017-06-29T22:57:41.295Z,8.23
2017-06-29T23:00:10.189Z,10.53
2017-06-29T23:02:38.582Z,10.00
2017-06-29T23:05:06.110Z,7.90
2017-06-29T23:07:33.652Z,10.20
2017-06-29T23:10:01.178Z,8.43
2017-06-29T23:12:28.688Z,8.40
2017-06-29T23:14:56.235Z,8.80
2017-06-29T23:17:25.117Z,9.03
2017-06-29T23:19:53.805Z,10.33
2017-06-29T23:22:22.470Z,8.60
2017-06-29T23:24:51.518Z,9.17
2017-06-29T23:27:19.054Z,9.10
2017-06-29T23:29:46.607Z,9.47
2017-06-29T23:32:14.130Z,8.63
2017-06-29T23:34:41.673Z,8.97
2017-06-29T23:37:10.345Z,9.20
2017-06-29T23:39:37.906Z,9.97
2017-06-29T23:42:05.447Z,10.13
2017-06-29T23:44:34.135Z,9.57
2017-06-29T23:47:02.798Z,8.47
2017-06-29T23:49:30.313Z,9.43
2017-06-29T23:51:59.458Z,8.77
2017-06-29T23:54:26.986Z,9.43
2017-06-29T23:56:55.661Z,7.53
2017-06-29T23:59:24.715Z,6.90
